Arlanza Village, CA

11:17 PM PDT on October 24, 2014 (GMT -0700)
La Sierra / Country View Estates | Change Station
CLOSE
Current Station
Personal Weather Station
Location: Riverside, CA
Elevation: 856 ft
Nearby Weather Stations

Elev 856 ft 33.95 °N, 117.49 °W | Updated 11 minutes ago

Clear
Clear
70.7 °F
Feels Like 76 °F
N
0.0
Wind Variable Wind from ENE
Gusts 1.0 mph

Today
High -- | Low -- °F
--% Chance of Precip.
Yesterday
High -- | Low -- °F
Precip. -- in
7:02 AM 6:05 PM
New Moon, 2% visible
Pressure 29.97 in
Visibility 10.0 miles
Clouds Clear
Heat Index 76 °F
Dew Point 40 °F
Humidity 33%
Rainfall 0.00 in
Snow Depth Not available.
UV 0 out of 12
Pollen 4.10 out of 12
Air Quality Not available.
Flu Activity Not available.
METAR KRAL 250553Z AUTO 09003KT 10SM CLR 20/03 A3002 RMK AO2 SLP149 T02000033 10306 20200 51013

More Conditions Fewer Conditions

Pressure 29.97 in
Visibility 10.0 miles
Clouds Clear
Heat Index 76 °F
Dew Point 40 °F
Humidity 33%
Rainfall 0.00 in
Snow Depth Not available.
UV 0 out of 12
Pollen 4.10 out of 12
Air Quality Not available.
Flu Activity Not available.
METAR KRAL 250553Z AUTO 09003KT 10SM CLR 20/03 A3002 RMK AO2 SLP149 T02000033 10306 20200 51013

More Conditions Fewer Conditions

10-Day Weather Forecast

Almanac

Astronomy

Oct. 24, 2014 Rise Set
Actual Time 7:02 AM PDT 6:05 PM PDT
Civil Twilight 6:36 AM PDT 6:30 PM PDT
Nautical Twilight 6:07 AM PDT 6:59 PM PDT
Astronomical Twilight 5:38 AM PDT 7:28 PM PDT
Moon 7:44 AM PDT (10/24) 6:50 PM PDT (10/24)
Length of Visible Light 11h 53m
Length of Day
11h 02m
Tomorrow will be 1m 56s shorter.
New Moon, 2% of the Moon is Illuminated
Oct 25
New Moon
Oct 30
First Quarter
Nov 6
Full
Nov 14
Last Quarter
Nov 22
New

Community

WunderPhotos

Upload Photos

1,764,785 photos uploaded!

Nearby

Snow Depth

Station Depth Elevation
Virginia Lakes Ridge 0 in 9200 ft
Leavitt Lake 1 in 9400 ft
Leavitt Meadows 1 in 7200 ft
Summit Meadow 1 in 9122 ft
Monitor Pass 1 in 8350 ft

Earthquake Activity

City Distance Mag. Time & Date
Brea, California 23 miles 2.9 3:35 PM PDT
2014-10-23
Brea, California 23 miles 2.8 3:34 PM PDT
2014-10-23
Corona, California 10 miles 2.5 1:09 PM PDT
2014-10-23
Minimum magnitude displayed is 2.5.

Coastal Water Temperatures

Place Temperature
Santa Monica Pier 69.1 °F
Los Angeles, CA 69.1 °F
La Jolla, CA 71.1 °F

Nearby Weather Stations